Login

pippope
1 activity; - Last training unit 28/04/2013
28/04/2013 Show to everybody allenamento000 33.04 775 02:44:54 12.02 Km\h cannondale rize 4
19/04/2013 Show to everybody allenamento0000 40.32 1197 04:13:09 9.56 Km\h cannondale rize 4
14/04/2013 Show to everybody rusta cinto fasolo 25.3 901 02:45:59 9.15 Km\h cannondale rize 4
17/03/2013 Show to everybody activity_285591212.gpx 21.7 637 02:07:54 10.18 Km\h cannondale rize 4
15/03/2013 Show to everybody activity_282820857.gpx 16.69 390 01:41:48 9.84 Km\h cannondale rize 4
12/03/2013 Show to everybody activity_282820857.gpx 21.44 30 01:10:16 18.31 Km\h cannondale rize 4
09/03/2013 Show to everybody activity_282820857.gpx 29.27 39 01:13:03 24.04 Km\h cannondale rize 4
03/03/2013 Show to everybody activity_280396586 22.67 640 02:26:49 9.27 Km\h cannondale rize 4
01/03/2013 Show to everybody activity_280396609 26.63 63 01:37:01 16.47 Km\h cannondale rize 4
23/02/2013 Show to everybody activity_280396718 33.19 143 01:27:29 22.76 Km\h cannondale rize 4
20/02/2013 Show to everybody activity_275647105 28.31 586 01:38:17 17.29 Km\h cannondale rize 4
17/02/2013 Show to everybody activity_274302186 20.27 552 02:06:07 9.65 Km\h cannondale rize 4
14/02/2013 Show to everybody activity_274302234 26.4 233 01:22:19 19.24 Km\h cannondale rize 4
08/02/2013 Show to everybody activity_273098117 35.72 224 01:29:09 24.04 Km\h cannondale rize 4
04/02/2013 Show to everybody activity_273098127 32.3 294 01:58:07 16.41 Km\h cannondale rize 4
27/01/2013 Show to everybody activity_267043070 44.9 268 02:02:08 22.06 Km\h cannondale rize 4
23/01/2013 Show to everybody Allenamento 23-01-2013 alle 13:10:48.000 30.49 61 01:36:24 18.98 Km\h
12/01/2013 Show to everybody Allenamento 12-01-2013 alle 12:37:11.000 26.38 183 01:42:39 15.42 Km\h
09/01/2013 Show to everybody Allenamento 09-01-2013 alle 13:29:54.000 18.12 29 01:00:01 18.12 Km\h
04/01/2013 Show to everybody Allenamento 04-01-2013 alle 13:19:52.000 17.38 29 00:57:47 18.04 Km\h
30/11/1999 Show to everybody berici 76.97 0 00:00:00 0 Km\h cannondale rize 4
30/11/1999 Show to everybody grappa 34.1 859 02:21:58 14.41 Km\h cannondale rize 4
Training units 0
Kilometers 0 Km
Vertical gain 0 mt
Hours of riding 00:00:00
Average speed 0 Km/h
average HR 122
Points 11
Live Tracking »

cannondale rize 4 34:26:27 569.23 Km

 
If you stop following this users you will not be able to compare your trainings with his

Now you follow this users and you can compare your trainings


MTB-Mag.com | 2012-2021 Training Camp v.1.6 rev 05